sensor_id;sensor_type;location;lat;lon;timestamp;temperature;humidity
23703;DHT22;12030;50.376;8.762;2023-03-05T00:00:14;5.40;99.90
23703;DHT22;12030;50.376;8.762;2023-03-05T00:02:40;5.40;99.90
23703;DHT22;12030;50.376;8.762;2023-03-05T00:05:07;5.30;99.90
23703;DHT22;12030;50.376;8.762;2023-03-05T00:07:33;5.40;99.90
23703;DHT22;12030;50.376;8.762;2023-03-05T00:09:59;5.30;99.90
23703;DHT22;12030;50.376;8.762;2023-03-05T00:12:25;5.30;99.90
23703;DHT22;12030;50.376;8.762;2023-03-05T00:14:50;5.30;99.90
23703;DHT22;12030;50.376;8.762;2023-03-05T00:17:16;5.40;99.90
23703;DHT22;12030;50.376;8.762;2023-03-05T00:19:42;5.40;99.90
23703;DHT22;12030;50.376;8.762;2023-03-05T00:22:07;5.30;99.90
23703;DHT22;12030;50.376;8.762;2023-03-05T00:24:32;5.40;99.90
23703;DHT22;12030;50.376;8.762;2023-03-05T00:26:58;5.30;99.90
23703;DHT22;12030;50.376;8.762;2023-03-05T00:29:24;5.40;99.90
23703;DHT22;12030;50.376;8.762;2023-03-05T00:31:49;5.30;99.90
23703;DHT22;12030;50.376;8.762;2023-03-05T00:34:17;5.30;99.90
23703;DHT22;12030;50.376;8.762;2023-03-05T00:36:45;5.30;99.90
23703;DHT22;12030;50.376;8.762;2023-03-05T00:39:12;5.30;99.90
23703;DHT22;12030;50.376;8.762;2023-03-05T00:41:37;5.30;99.90
23703;DHT22;12030;50.376;8.762;2023-03-05T00:44:03;5.30;99.90
23703;DHT22;12030;50.376;8.762;2023-03-05T00:46:29;5.30;99.90
23703;DHT22;12030;50.376;8.762;2023-03-05T00:48:55;5.30;99.90
23703;DHT22;12030;50.376;8.762;2023-03-05T00:51:21;5.30;99.90
23703;DHT22;12030;50.376;8.762;2023-03-05T00:53:47;5.20;99.90
23703;DHT22;12030;50.376;8.762;2023-03-05T00:56:12;5.20;99.90
23703;DHT22;12030;50.376;8.762;2023-03-05T00:58:38;5.20;99.90
23703;DHT22;12030;50.376;8.762;2023-03-05T01:01:04;5.30;99.90
23703;DHT22;12030;50.376;8.762;2023-03-05T01:03:31;5.30;99.90
23703;DHT22;12030;50.376;8.762;2023-03-05T01:05:57;5.20;99.90
23703;DHT22;12030;50.376;8.762;2023-03-05T01:08:24;5.30;99.90
23703;DHT22;12030;50.376;8.762;2023-03-05T01:10:50;5.20;99.90
23703;DHT22;12030;50.376;8.762;2023-03-05T01:13:16;5.20;99.90
23703;DHT22;12030;50.376;8.762;2023-03-05T01:15:41;5.30;99.90
23703;DHT22;12030;50.376;8.762;2023-03-05T01:18:07;5.40;99.90
23703;DHT22;12030;50.376;8.762;2023-03-05T01:20:33;5.30;99.90
23703;DHT22;12030;50.376;8.762;2023-03-05T01:22:58;5.30;99.90
23703;DHT22;12030;50.376;8.762;2023-03-05T01:25:26;5.40;99.90
23703;DHT22;12030;50.376;8.762;2023-03-05T01:27:52;5.40;99.90
23703;DHT22;12030;50.376;8.762;2023-03-05T01:30:18;5.40;99.90
23703;DHT22;12030;50.376;8.762;2023-03-05T01:32:44;5.40;99.90
23703;DHT22;12030;50.376;8.762;2023-03-05T01:35:18;5.40;99.90
23703;DHT22;12030;50.376;8.762;2023-03-05T01:37:44;5.30;99.90
23703;DHT22;12030;50.376;8.762;2023-03-05T01:40:11;5.20;99.90
23703;DHT22;12030;50.376;8.762;2023-03-05T01:42:37;5.10;99.90
23703;DHT22;12030;50.376;8.762;2023-03-05T01:45:04;5.10;99.90
23703;DHT22;12030;50.376;8.762;2023-03-05T01:47:31;5.10;99.90
23703;DHT22;12030;50.376;8.762;2023-03-05T01:49:57;5.20;99.90
23703;DHT22;12030;50.376;8.762;2023-03-05T01:52:24;5.10;99.90
23703;DHT22;12030;50.376;8.762;2023-03-05T01:55:11;5.20;99.90
23703;DHT22;12030;50.376;8.762;2023-03-05T01:57:42;5.30;99.90
23703;DHT22;12030;50.376;8.762;2023-03-05T02:00:30;5.30;99.90
23703;DHT22;12030;50.376;8.762;2023-03-05T02:02:56;5.30;99.90
23703;DHT22;12030;50.376;8.762;2023-03-05T02:05:29;5.30;99.90
23703;DHT22;12030;50.376;8.762;2023-03-05T02:07:56;5.30;99.90
23703;DHT22;12030;50.376;8.762;2023-03-05T02:10:33;5.30;99.90
23703;DHT22;12030;50.376;8.762;2023-03-05T02:13:04;5.30;99.90
23703;DHT22;12030;50.376;8.762;2023-03-05T02:15:31;5.30;99.90
23703;DHT22;12030;50.376;8.762;2023-03-05T02:17:57;5.20;99.90
23703;DHT22;12030;50.376;8.762;2023-03-05T02:20:25;5.20;99.90
23703;DHT22;12030;50.376;8.762;2023-03-05T02:22:51;5.20;99.90
23703;DHT22;12030;50.376;8.762;2023-03-05T02:25:23;5.20;99.90
23703;DHT22;12030;50.376;8.762;2023-03-05T02:28:37;5.20;99.90
23703;DHT22;12030;50.376;8.762;2023-03-05T02:30:53;5.20;99.90
23703;DHT22;12030;50.376;8.762;2023-03-05T02:33:19;5.10;99.90
23703;DHT22;12030;50.376;8.762;2023-03-05T02:35:45;5.00;99.90
23703;DHT22;12030;50.376;8.762;2023-03-05T02:38:12;5.10;99.90
23703;DHT22;12030;50.376;8.762;2023-03-05T02:40:39;4.90;99.90
23703;DHT22;12030;50.376;8.762;2023-03-05T02:43:04;5.10;99.90
23703;DHT22;12030;50.376;8.762;2023-03-05T02:45:30;5.10;99.90
23703;DHT22;12030;50.376;8.762;2023-03-05T02:47:56;5.10;99.90
23703;DHT22;12030;50.376;8.762;2023-03-05T02:50:21;5.20;99.90
23703;DHT22;12030;50.376;8.762;2023-03-05T02:52:47;5.10;99.90
23703;DHT22;12030;50.376;8.762;2023-03-05T02:55:13;5.00;99.90
23703;DHT22;12030;50.376;8.762;2023-03-05T02:57:38;5.00;99.90
23703;DHT22;12030;50.376;8.762;2023-03-05T03:00:05;5.00;99.90
23703;DHT22;12030;50.376;8.762;2023-03-05T03:02:31;4.90;99.90
23703;DHT22;12030;50.376;8.762;2023-03-05T03:04:57;4.90;99.90
23703;DHT22;12030;50.376;8.762;2023-03-05T03:07:22;5.00;99.90
23703;DHT22;12030;50.376;8.762;2023-03-05T03:09:48;4.80;99.90
23703;DHT22;12030;50.376;8.762;2023-03-05T03:12:13;4.80;99.90
23703;DHT22;12030;50.376;8.762;2023-03-05T03:14:40;4.80;99.90
23703;DHT22;12030;50.376;8.762;2023-03-05T03:17:12;4.80;99.90
23703;DHT22;12030;50.376;8.762;2023-03-05T03:19:38;4.70;99.90
23703;DHT22;12030;50.376;8.762;2023-03-05T03:22:06;4.70;99.90
23703;DHT22;12030;50.376;8.762;2023-03-05T03:24:32;4.70;99.90
23703;DHT22;12030;50.376;8.762;2023-03-05T03:26:58;4.70;99.90
23703;DHT22;12030;50.376;8.762;2023-03-05T03:29:24;4.70;99.90
23703;DHT22;12030;50.376;8.762;2023-03-05T03:31:49;4.60;99.90
23703;DHT22;12030;50.376;8.762;2023-03-05T03:34:16;4.50;99.90
23703;DHT22;12030;50.376;8.762;2023-03-05T03:36:43;4.50;99.90
23703;DHT22;12030;50.376;8.762;2023-03-05T03:39:09;4.40;99.90
23703;DHT22;12030;50.376;8.762;2023-03-05T03:41:36;4.40;99.90
23703;DHT22;12030;50.376;8.762;2023-03-05T03:44:04;4.50;99.90
23703;DHT22;12030;50.376;8.762;2023-03-05T03:46:33;4.50;99.90
23703;DHT22;12030;50.376;8.762;2023-03-05T03:48:59;4.50;99.90
23703;DHT22;12030;50.376;8.762;2023-03-05T03:51:24;4.50;99.90
23703;DHT22;12030;50.376;8.762;2023-03-05T03:53:50;4.50;99.90
23703;DHT22;12030;50.376;8.762;2023-03-05T03:56:16;4.50;99.90
23703;DHT22;12030;50.376;8.762;2023-03-05T03:58:41;4.50;99.90
23703;DHT22;12030;50.376;8.762;2023-03-05T04:01:07;4.50;99.90
23703;DHT22;12030;50.376;8.762;2023-03-05T04:03:32;4.40;99.90
23703;DHT22;12030;50.376;8.762;2023-03-05T04:05:58;4.40;99.90
23703;DHT22;12030;50.376;8.762;2023-03-05T04:08:23;4.40;99.90
23703;DHT22;12030;50.376;8.762;2023-03-05T04:10:49;4.40;99.90
23703;DHT22;12030;50.376;8.762;2023-03-05T04:13:14;4.30;99.90
23703;DHT22;12030;50.376;8.762;2023-03-05T04:15:40;4.40;99.90
23703;DHT22;12030;50.376;8.762;2023-03-05T04:18:05;4.30;99.90
23703;DHT22;12030;50.376;8.762;2023-03-05T04:20:31;4.30;99.90
23703;DHT22;12030;50.376;8.762;2023-03-05T04:22:56;4.30;99.90
23703;DHT22;12030;50.376;8.762;2023-03-05T04:25:22;4.30;99.90
23703;DHT22;12030;50.376;8.762;2023-03-05T04:27:47;4.30;99.90
23703;DHT22;12030;50.376;8.762;2023-03-05T04:30:13;4.30;99.90
23703;DHT22;12030;50.376;8.762;2023-03-05T04:32:39;4.20;99.90
23703;DHT22;12030;50.376;8.762;2023-03-05T04:35:05;4.30;99.90
23703;DHT22;12030;50.376;8.762;2023-03-05T04:37:31;4.30;99.90
23703;DHT22;12030;50.376;8.762;2023-03-05T04:39:56;4.20;99.90
23703;DHT22;12030;50.376;8.762;2023-03-05T04:42:22;4.10;99.90
23703;DHT22;12030;50.376;8.762;2023-03-05T04:44:48;4.20;99.90
23703;DHT22;12030;50.376;8.762;2023-03-05T04:47:15;4.10;99.90
23703;DHT22;12030;50.376;8.762;2023-03-05T04:49:41;4.10;99.90
23703;DHT22;12030;50.376;8.762;2023-03-05T04:52:07;4.20;99.90
23703;DHT22;12030;50.376;8.762;2023-03-05T04:54:32;4.20;99.90
23703;DHT22;12030;50.376;8.762;2023-03-05T04:56:58;4.10;99.90
23703;DHT22;12030;50.376;8.762;2023-03-05T04:59:23;4.10;99.90
23703;DHT22;12030;50.376;8.762;2023-03-05T05:01:49;4.20;99.90
23703;DHT22;12030;50.376;8.762;2023-03-05T05:04:14;4.20;99.90
23703;DHT22;12030;50.376;8.762;2023-03-05T05:06:40;4.20;99.90
23703;DHT22;12030;50.376;8.762;2023-03-05T05:09:05;4.30;99.90
23703;DHT22;12030;50.376;8.762;2023-03-05T05:11:31;4.30;99.90
23703;DHT22;12030;50.376;8.762;2023-03-05T05:13:57;4.30;99.90
23703;DHT22;12030;50.376;8.762;2023-03-05T05:16:22;4.30;99.90
23703;DHT22;12030;50.376;8.762;2023-03-05T05:18:48;4.20;99.90
23703;DHT22;12030;50.376;8.762;2023-03-05T05:21:14;4.20;99.90
23703;DHT22;12030;50.376;8.762;2023-03-05T05:23:40;4.20;99.90
23703;DHT22;12030;50.376;8.762;2023-03-05T05:26:06;4.20;99.90
23703;DHT22;12030;50.376;8.762;2023-03-05T05:28:33;4.10;99.90
23703;DHT22;12030;50.376;8.762;2023-03-05T05:30:59;4.20;99.90
23703;DHT22;12030;50.376;8.762;2023-03-05T05:33:25;4.20;99.90
23703;DHT22;12030;50.376;8.762;2023-03-05T05:35:51;4.20;99.90
23703;DHT22;12030;50.376;8.762;2023-03-05T05:38:17;4.20;99.90
23703;DHT22;12030;50.376;8.762;2023-03-05T05:40:43;4.10;99.90
23703;DHT22;12030;50.376;8.762;2023-03-05T05:43:08;4.10;99.90
23703;DHT22;12030;50.376;8.762;2023-03-05T05:45:36;4.10;99.90
23703;DHT22;12030;50.376;8.762;2023-03-05T05:48:02;4.10;99.90
23703;DHT22;12030;50.376;8.762;2023-03-05T05:50:28;4.10;99.90
23703;DHT22;12030;50.376;8.762;2023-03-05T05:52:53;4.10;99.90
23703;DHT22;12030;50.376;8.762;2023-03-05T05:55:19;4.10;99.90
23703;DHT22;12030;50.376;8.762;2023-03-05T05:57:44;4.10;99.90
23703;DHT22;12030;50.376;8.762;2023-03-05T06:00:12;4.10;99.90
23703;DHT22;12030;50.376;8.762;2023-03-05T06:02:41;4.10;99.90
23703;DHT22;12030;50.376;8.762;2023-03-05T06:05:11;4.10;99.90
23703;DHT22;12030;50.376;8.762;2023-03-05T06:07:37;4.10;99.90
23703;DHT22;12030;50.376;8.762;2023-03-05T06:10:03;4.10;99.90
23703;DHT22;12030;50.376;8.762;2023-03-05T06:12:29;4.00;99.90
23703;DHT22;12030;50.376;8.762;2023-03-05T06:14:54;4.00;99.90
23703;DHT22;12030;50.376;8.762;2023-03-05T06:17:20;4.00;99.90
23703;DHT22;12030;50.376;8.762;2023-03-05T06:19:45;4.00;99.90
23703;DHT22;12030;50.376;8.762;2023-03-05T06:22:11;4.00;99.90
23703;DHT22;12030;50.376;8.762;2023-03-05T06:24:37;3.90;99.90
23703;DHT22;12030;50.376;8.762;2023-03-05T06:27:04;4.00;99.90
23703;DHT22;12030;50.376;8.762;2023-03-05T06:29:30;4.00;99.90
23703;DHT22;12030;50.376;8.762;2023-03-05T06:31:55;4.10;99.90
23703;DHT22;12030;50.376;8.762;2023-03-05T06:34:21;4.10;99.90
23703;DHT22;12030;50.376;8.762;2023-03-05T06:36:46;4.00;99.90
23703;DHT22;12030;50.376;8.762;2023-03-05T06:39:12;4.10;99.90
23703;DHT22;12030;50.376;8.762;2023-03-05T06:41:38;4.10;99.90
23703;DHT22;12030;50.376;8.762;2023-03-05T06:44:03;4.10;99.90
23703;DHT22;12030;50.376;8.762;2023-03-05T06:46:32;4.20;99.90
23703;DHT22;12030;50.376;8.762;2023-03-05T06:48:59;4.30;99.90
23703;DHT22;12030;50.376;8.762;2023-03-05T06:51:33;4.20;99.90
23703;DHT22;12030;50.376;8.762;2023-03-05T06:54:05;4.30;99.90
23703;DHT22;12030;50.376;8.762;2023-03-05T06:56:31;4.30;99.90
23703;DHT22;12030;50.376;8.762;2023-03-05T06:58:58;4.40;99.90
23703;DHT22;12030;50.376;8.762;2023-03-05T07:01:24;4.30;99.90
23703;DHT22;12030;50.376;8.762;2023-03-05T07:03:51;4.30;99.90
23703;DHT22;12030;50.376;8.762;2023-03-05T07:06:18;4.30;99.90
23703;DHT22;12030;50.376;8.762;2023-03-05T07:08:44;4.30;99.90
23703;DHT22;12030;50.376;8.762;2023-03-05T07:11:19;4.50;99.90
23703;DHT22;12030;50.376;8.762;2023-03-05T07:13:45;4.60;99.90
23703;DHT22;12030;50.376;8.762;2023-03-05T07:16:26;4.70;99.90
23703;DHT22;12030;50.376;8.762;2023-03-05T07:18:53;4.80;99.90
23703;DHT22;12030;50.376;8.762;2023-03-05T07:21:21;4.80;99.90
23703;DHT22;12030;50.376;8.762;2023-03-05T07:23:47;4.90;99.90
23703;DHT22;12030;50.376;8.762;2023-03-05T07:26:13;5.00;99.90
23703;DHT22;12030;50.376;8.762;2023-03-05T07:28:39;5.00;99.90
23703;DHT22;12030;50.376;8.762;2023-03-05T07:31:12;5.00;99.90
23703;DHT22;12030;50.376;8.762;2023-03-05T07:33:38;5.00;99.90
23703;DHT22;12030;50.376;8.762;2023-03-05T07:36:07;5.10;99.90
23703;DHT22;12030;50.376;8.762;2023-03-05T07:38:32;5.00;99.90
23703;DHT22;12030;50.376;8.762;2023-03-05T07:41:03;5.00;99.90
23703;DHT22;12030;50.376;8.762;2023-03-05T07:43:28;5.10;99.90
23703;DHT22;12030;50.376;8.762;2023-03-05T07:45:54;5.10;99.90
23703;DHT22;12030;50.376;8.762;2023-03-05T07:48:19;5.10;99.90
23703;DHT22;12030;50.376;8.762;2023-03-05T07:50:45;5.10;99.90
23703;DHT22;12030;50.376;8.762;2023-03-05T07:53:11;5.10;99.90
23703;DHT22;12030;50.376;8.762;2023-03-05T07:55:44;5.10;99.90
23703;DHT22;12030;50.376;8.762;2023-03-05T07:58:11;5.00;99.90
23703;DHT22;12030;50.376;8.762;2023-03-05T08:00:37;5.00;99.90
23703;DHT22;12030;50.376;8.762;2023-03-05T08:03:03;4.90;99.90
23703;DHT22;12030;50.376;8.762;2023-03-05T08:05:28;4.90;99.90
23703;DHT22;12030;50.376;8.762;2023-03-05T08:07:54;5.00;99.90
23703;DHT22;12030;50.376;8.762;2023-03-05T08:10:20;5.00;99.90
23703;DHT22;12030;50.376;8.762;2023-03-05T08:12:45;5.00;99.90
23703;DHT22;12030;50.376;8.762;2023-03-05T08:15:11;5.00;99.90
23703;DHT22;12030;50.376;8.762;2023-03-05T08:17:36;5.00;99.90
23703;DHT22;12030;50.376;8.762;2023-03-05T08:20:03;5.00;99.90
23703;DHT22;12030;50.376;8.762;2023-03-05T08:22:33;5.00;99.90
23703;DHT22;12030;50.376;8.762;2023-03-05T08:25:00;5.00;99.90
23703;DHT22;12030;50.376;8.762;2023-03-05T08:27:26;5.10;99.90
23703;DHT22;12030;50.376;8.762;2023-03-05T08:29:51;5.10;99.90
23703;DHT22;12030;50.376;8.762;2023-03-05T08:32:17;5.20;99.90
23703;DHT22;12030;50.376;8.762;2023-03-05T08:34:43;5.20;99.90
23703;DHT22;12030;50.376;8.762;2023-03-05T08:37:08;5.30;99.90
23703;DHT22;12030;50.376;8.762;2023-03-05T08:39:35;5.30;99.90
23703;DHT22;12030;50.376;8.762;2023-03-05T08:42:00;5.40;99.90
23703;DHT22;12030;50.376;8.762;2023-03-05T08:44:26;5.50;99.90
23703;DHT22;12030;50.376;8.762;2023-03-05T08:46:52;5.60;99.90
23703;DHT22;12030;50.376;8.762;2023-03-05T08:49:17;5.70;99.90
23703;DHT22;12030;50.376;8.762;2023-03-05T08:51:43;5.70;99.90
23703;DHT22;12030;50.376;8.762;2023-03-05T08:54:08;5.70;99.90
23703;DHT22;12030;50.376;8.762;2023-03-05T08:56:34;5.80;99.90
23703;DHT22;12030;50.376;8.762;2023-03-05T08:59:01;5.90;99.90
23703;DHT22;12030;50.376;8.762;2023-03-05T09:01:27;5.80;99.90
23703;DHT22;12030;50.376;8.762;2023-03-05T09:03:55;5.80;99.90
23703;DHT22;12030;50.376;8.762;2023-03-05T09:06:20;5.80;99.90
23703;DHT22;12030;50.376;8.762;2023-03-05T09:08:46;5.80;99.90
23703;DHT22;12030;50.376;8.762;2023-03-05T09:11:12;5.80;99.90
23703;DHT22;12030;50.376;8.762;2023-03-05T09:13:38;5.80;99.90
23703;DHT22;12030;50.376;8.762;2023-03-05T09:16:11;5.80;99.90
23703;DHT22;12030;50.376;8.762;2023-03-05T09:18:36;5.80;99.90
23703;DHT22;12030;50.376;8.762;2023-03-05T09:21:06;5.80;99.90
23703;DHT22;12030;50.376;8.762;2023-03-05T09:23:32;5.80;99.90
23703;DHT22;12030;50.376;8.762;2023-03-05T09:25:57;5.80;99.90
23703;DHT22;12030;50.376;8.762;2023-03-05T09:28:23;5.70;99.90
23703;DHT22;12030;50.376;8.762;2023-03-05T09:30:48;5.70;99.90
23703;DHT22;12030;50.376;8.762;2023-03-05T09:33:14;5.70;99.90
23703;DHT22;12030;50.376;8.762;2023-03-05T09:35:40;5.60;99.90
23703;DHT22;12030;50.376;8.762;2023-03-05T09:38:05;5.70;99.90
23703;DHT22;12030;50.376;8.762;2023-03-05T09:40:41;5.70;99.90
23703;DHT22;12030;50.376;8.762;2023-03-05T09:48:50;5.70;99.90
23703;DHT22;12030;50.376;8.762;2023-03-05T09:51:24;5.80;99.90
23703;DHT22;12030;50.376;8.762;2023-03-05T09:54:02;5.80;99.90
23703;DHT22;12030;50.376;8.762;2023-03-05T09:56:35;5.80;99.90
23703;DHT22;12030;50.376;8.762;2023-03-05T09:59:13;5.70;99.90
23703;DHT22;12030;50.376;8.762;2023-03-05T10:01:43;5.70;99.90
23703;DHT22;12030;50.376;8.762;2023-03-05T10:07:03;5.90;99.90
23703;DHT22;12030;50.376;8.762;2023-03-05T10:09:44;5.90;99.90
23703;DHT22;12030;50.376;8.762;2023-03-05T10:14:45;6.00;99.90
23703;DHT22;12030;50.376;8.762;2023-03-05T10:22:35;6.10;99.90
23703;DHT22;12030;50.376;8.762;2023-03-05T10:25:23;6.10;99.90
23703;DHT22;12030;50.376;8.762;2023-03-05T10:27:52;6.20;99.90
23703;DHT22;12030;50.376;8.762;2023-03-05T10:30:43;6.20;99.90
23703;DHT22;12030;50.376;8.762;2023-03-05T10:33:42;6.20;99.90
23703;DHT22;12030;50.376;8.762;2023-03-05T10:42:07;6.60;99.90
23703;DHT22;12030;50.376;8.762;2023-03-05T10:44:39;6.80;99.90
23703;DHT22;12030;50.376;8.762;2023-03-05T10:47:15;6.90;99.90
23703;DHT22;12030;50.376;8.762;2023-03-05T10:49:49;7.00;99.90
23703;DHT22;12030;50.376;8.762;2023-03-05T10:52:31;7.20;99.90
23703;DHT22;12030;50.376;8.762;2023-03-05T10:54:59;7.30;99.90
23703;DHT22;12030;50.376;8.762;2023-03-05T10:57:27;7.30;99.90
23703;DHT22;12030;50.376;8.762;2023-03-05T11:00:06;7.40;99.90
23703;DHT22;12030;50.376;8.762;2023-03-05T11:02:33;7.40;99.90
23703;DHT22;12030;50.376;8.762;2023-03-05T11:04:59;7.30;99.90
23703;DHT22;12030;50.376;8.762;2023-03-05T11:12:32;7.50;98.70
23703;DHT22;12030;50.376;8.762;2023-03-05T11:17:44;7.40;98.80
23703;DHT22;12030;50.376;8.762;2023-03-05T11:20:31;7.20;99.10
23703;DHT22;12030;50.376;8.762;2023-03-05T11:23:20;7.20;99.50
23703;DHT22;12030;50.376;8.762;2023-03-05T11:26:01;7.20;99.30
23703;DHT22;12030;50.376;8.762;2023-03-05T11:36:36;6.70;99.90
23703;DHT22;12030;50.376;8.762;2023-03-05T11:41:57;6.60;99.90
23703;DHT22;12030;50.376;8.762;2023-03-05T11:49:28;6.50;99.90
23703;DHT22;12030;50.376;8.762;2023-03-05T11:52:24;6.40;99.90
23703;DHT22;12030;50.376;8.762;2023-03-05T11:57:28;6.30;99.90
23703;DHT22;12030;50.376;8.762;2023-03-05T11:59:57;6.20;99.90
23703;DHT22;12030;50.376;8.762;2023-03-05T12:02:25;6.10;99.90
23703;DHT22;12030;50.376;8.762;2023-03-05T12:04:51;6.10;99.90
23703;DHT22;12030;50.376;8.762;2023-03-05T12:07:40;6.20;99.90
23703;DHT22;12030;50.376;8.762;2023-03-05T12:10:12;6.30;99.90
23703;DHT22;12030;50.376;8.762;2023-03-05T12:15:45;6.30;99.90
23703;DHT22;12030;50.376;8.762;2023-03-05T12:21:39;6.30;99.90
23703;DHT22;12030;50.376;8.762;2023-03-05T12:32:01;6.70;99.90
23703;DHT22;12030;50.376;8.762;2023-03-05T12:53:13;6.70;99.90
23703;DHT22;12030;50.376;8.762;2023-03-05T12:55:55;6.60;99.90
23703;DHT22;12030;50.376;8.762;2023-03-05T12:58:42;6.60;99.90
23703;DHT22;12030;50.376;8.762;2023-03-05T13:01:19;6.60;99.90
23703;DHT22;12030;50.376;8.762;2023-03-05T13:03:53;6.60;99.90
23703;DHT22;12030;50.376;8.762;2023-03-05T13:08:56;6.50;99.90
23703;DHT22;12030;50.376;8.762;2023-03-05T13:11:22;6.40;99.90
23703;DHT22;12030;50.376;8.762;2023-03-05T13:13:48;6.30;99.90
23703;DHT22;12030;50.376;8.762;2023-03-05T13:16:17;6.20;99.90
23703;DHT22;12030;50.376;8.762;2023-03-05T13:18:46;6.20;99.90
23703;DHT22;12030;50.376;8.762;2023-03-05T13:21:14;6.20;99.90
23703;DHT22;12030;50.376;8.762;2023-03-05T13:23:48;6.20;99.90
23703;DHT22;12030;50.376;8.762;2023-03-05T13:26:18;6.10;99.90
23703;DHT22;12030;50.376;8.762;2023-03-05T13:29:06;6.20;99.90
23703;DHT22;12030;50.376;8.762;2023-03-05T13:31:34;6.10;99.90
23703;DHT22;12030;50.376;8.762;2023-03-05T13:36:39;6.20;99.90
23703;DHT22;12030;50.376;8.762;2023-03-05T13:39:17;6.20;99.90
23703;DHT22;12030;50.376;8.762;2023-03-05T13:42:01;6.20;99.90
23703;DHT22;12030;50.376;8.762;2023-03-05T13:44:29;6.20;99.90
23703;DHT22;12030;50.376;8.762;2023-03-05T13:47:08;6.30;99.90
23703;DHT22;12030;50.376;8.762;2023-03-05T13:49:34;6.40;99.90
23703;DHT22;12030;50.376;8.762;2023-03-05T13:52:00;6.40;99.90
23703;DHT22;12030;50.376;8.762;2023-03-05T13:54:26;6.50;99.90
23703;DHT22;12030;50.376;8.762;2023-03-05T13:56:59;6.50;99.90
23703;DHT22;12030;50.376;8.762;2023-03-05T13:59:33;6.50;99.90
23703;DHT22;12030;50.376;8.762;2023-03-05T14:02:00;6.50;99.90
23703;DHT22;12030;50.376;8.762;2023-03-05T14:04:35;6.60;99.90
23703;DHT22;12030;50.376;8.762;2023-03-05T14:09:52;6.60;99.90
23703;DHT22;12030;50.376;8.762;2023-03-05T14:14:49;6.50;99.90
23703;DHT22;12030;50.376;8.762;2023-03-05T14:17:35;6.50;99.90
23703;DHT22;12030;50.376;8.762;2023-03-05T14:22:38;6.50;99.90
23703;DHT22;12030;50.376;8.762;2023-03-05T14:25:05;6.40;99.90
23703;DHT22;12030;50.376;8.762;2023-03-05T14:27:34;6.40;99.90
23703;DHT22;12030;50.376;8.762;2023-03-05T14:30:01;6.40;99.90
23703;DHT22;12030;50.376;8.762;2023-03-05T14:32:36;6.30;99.90
23703;DHT22;12030;50.376;8.762;2023-03-05T14:35:03;6.30;99.90
23703;DHT22;12030;50.376;8.762;2023-03-05T14:37:35;6.30;99.90
23703;DHT22;12030;50.376;8.762;2023-03-05T14:40:06;6.30;99.90
23703;DHT22;12030;50.376;8.762;2023-03-05T14:45:44;6.30;99.90
23703;DHT22;12030;50.376;8.762;2023-03-05T14:48:12;6.20;99.90
23703;DHT22;12030;50.376;8.762;2023-03-05T14:50:42;6.20;99.90
23703;DHT22;12030;50.376;8.762;2023-03-05T14:53:14;6.10;99.90
23703;DHT22;12030;50.376;8.762;2023-03-05T14:55:41;5.90;99.90
23703;DHT22;12030;50.376;8.762;2023-03-05T14:58:16;5.80;99.90
23703;DHT22;12030;50.376;8.762;2023-03-05T15:00:43;5.70;99.90
23703;DHT22;12030;50.376;8.762;2023-03-05T15:03:13;5.50;99.90
23703;DHT22;12030;50.376;8.762;2023-03-05T15:05:40;5.40;99.90
23703;DHT22;12030;50.376;8.762;2023-03-05T15:08:13;5.40;99.90
23703;DHT22;12030;50.376;8.762;2023-03-05T15:10:40;5.40;99.90
23703;DHT22;12030;50.376;8.762;2023-03-05T15:13:05;5.50;99.90
23703;DHT22;12030;50.376;8.762;2023-03-05T15:15:31;5.50;99.90
23703;DHT22;12030;50.376;8.762;2023-03-05T15:17:57;5.40;99.90
23703;DHT22;12030;50.376;8.762;2023-03-05T15:20:25;5.30;99.90
23703;DHT22;12030;50.376;8.762;2023-03-05T15:22:51;5.30;99.90
23703;DHT22;12030;50.376;8.762;2023-03-05T15:25:18;5.30;99.90
23703;DHT22;12030;50.376;8.762;2023-03-05T15:27:44;5.30;99.90
23703;DHT22;12030;50.376;8.762;2023-03-05T15:32:54;5.30;99.90
23703;DHT22;12030;50.376;8.762;2023-03-05T15:35:21;5.30;99.90
23703;DHT22;12030;50.376;8.762;2023-03-05T15:37:47;5.30;99.90
23703;DHT22;12030;50.376;8.762;2023-03-05T15:40:13;5.20;99.90
23703;DHT22;12030;50.376;8.762;2023-03-05T15:42:39;5.10;99.90
23703;DHT22;12030;50.376;8.762;2023-03-05T15:45:05;5.20;99.90
23703;DHT22;12030;50.376;8.762;2023-03-05T15:47:30;5.20;99.90
23703;DHT22;12030;50.376;8.762;2023-03-05T15:49:56;5.20;99.90
23703;DHT22;12030;50.376;8.762;2023-03-05T15:52:22;5.20;99.90
23703;DHT22;12030;50.376;8.762;2023-03-05T15:54:47;5.20;99.90
23703;DHT22;12030;50.376;8.762;2023-03-05T15:57:13;5.20;99.90
23703;DHT22;12030;50.376;8.762;2023-03-05T15:59:38;5.20;99.90
23703;DHT22;12030;50.376;8.762;2023-03-05T16:02:05;5.20;99.90
23703;DHT22;12030;50.376;8.762;2023-03-05T16:04:31;5.20;99.90
23703;DHT22;12030;50.376;8.762;2023-03-05T16:06:58;5.30;99.90
23703;DHT22;12030;50.376;8.762;2023-03-05T16:09:30;5.30;99.90
23703;DHT22;12030;50.376;8.762;2023-03-05T16:11:56;5.40;99.90
23703;DHT22;12030;50.376;8.762;2023-03-05T16:14:24;5.40;99.90
23703;DHT22;12030;50.376;8.762;2023-03-05T16:16:52;5.40;99.90
23703;DHT22;12030;50.376;8.762;2023-03-05T16:19:19;5.30;99.90
23703;DHT22;12030;50.376;8.762;2023-03-05T16:21:45;5.30;99.90
23703;DHT22;12030;50.376;8.762;2023-03-05T16:24:11;5.30;99.90
23703;DHT22;12030;50.376;8.762;2023-03-05T16:26:38;5.40;99.90
23703;DHT22;12030;50.376;8.762;2023-03-05T16:29:05;5.40;99.90
23703;DHT22;12030;50.376;8.762;2023-03-05T16:31:32;5.30;99.90
23703;DHT22;12030;50.376;8.762;2023-03-05T16:33:58;5.30;99.90
23703;DHT22;12030;50.376;8.762;2023-03-05T16:36:26;5.30;99.90
23703;DHT22;12030;50.376;8.762;2023-03-05T16:38:54;5.30;99.90
23703;DHT22;12030;50.376;8.762;2023-03-05T16:41:20;5.40;99.90
23703;DHT22;12030;50.376;8.762;2023-03-05T16:43:48;5.30;99.90
23703;DHT22;12030;50.376;8.762;2023-03-05T16:46:14;5.40;99.90
23703;DHT22;12030;50.376;8.762;2023-03-05T16:48:40;5.40;99.90
23703;DHT22;12030;50.376;8.762;2023-03-05T16:51:07;5.40;99.90
23703;DHT22;12030;50.376;8.762;2023-03-05T16:53:33;5.30;99.90
23703;DHT22;12030;50.376;8.762;2023-03-05T16:56:04;5.40;99.90
23703;DHT22;12030;50.376;8.762;2023-03-05T16:58:31;5.30;99.90
23703;DHT22;12030;50.376;8.762;2023-03-05T17:00:58;5.30;99.90
23703;DHT22;12030;50.376;8.762;2023-03-05T17:03:24;5.30;99.90
23703;DHT22;12030;50.376;8.762;2023-03-05T17:05:50;5.30;99.90
23703;DHT22;12030;50.376;8.762;2023-03-05T17:08:15;5.20;99.90
23703;DHT22;12030;50.376;8.762;2023-03-05T17:10:41;5.20;99.90
23703;DHT22;12030;50.376;8.762;2023-03-05T17:13:07;5.20;99.90
23703;DHT22;12030;50.376;8.762;2023-03-05T17:15:33;5.20;99.90
23703;DHT22;12030;50.376;8.762;2023-03-05T17:17:59;5.20;99.90
23703;DHT22;12030;50.376;8.762;2023-03-05T17:20:25;5.30;99.90
23703;DHT22;12030;50.376;8.762;2023-03-05T17:22:51;5.20;99.90
23703;DHT22;12030;50.376;8.762;2023-03-05T17:25:16;5.20;99.90
23703;DHT22;12030;50.376;8.762;2023-03-05T17:27:42;5.20;99.90
23703;DHT22;12030;50.376;8.762;2023-03-05T17:30:08;5.20;99.90